createdAt,value
2023-05-13T00:00:18.402Z,12.17
2023-05-13T00:04:34.727Z,12.45
2023-05-13T00:08:51.308Z,12.86
2023-05-13T00:13:08.638Z,12.63
2023-05-13T00:17:25.280Z,12.44
2023-05-13T00:21:41.646Z,12.82
2023-05-13T00:25:57.818Z,12.54
2023-05-13T00:30:14.249Z,12.37
2023-05-13T00:34:30.511Z,12.76
2023-05-13T00:38:46.824Z,12.82
2023-05-13T00:43:03.004Z,12.85
2023-05-13T00:47:19.392Z,12.92
2023-05-13T00:51:36.728Z,12.90
2023-05-13T00:55:53.286Z,12.63
2023-05-13T01:00:10.762Z,12.86
2023-05-13T01:04:57.528Z,12.61
2023-05-13T01:09:35.161Z,13.04
2023-05-13T01:13:58.228Z,12.91
2023-05-13T01:18:24.905Z,12.88
2023-05-13T01:22:41.194Z,13.21
2023-05-13T01:26:57.494Z,13.00
2023-05-13T01:31:15.466Z,13.03
2023-05-13T01:35:32.316Z,13.04
2023-05-13T01:39:48.865Z,12.85
2023-05-13T01:44:05.183Z,12.82
2023-05-13T01:48:21.405Z,12.85
2023-05-13T01:52:37.748Z,12.93
2023-05-13T01:56:54.059Z,13.02
2023-05-13T02:01:10.248Z,12.95
2023-05-13T02:05:26.482Z,12.98
2023-05-13T02:09:42.815Z,13.13
2023-05-13T02:13:59.212Z,12.86
2023-05-13T02:18:15.407Z,12.83
2023-05-13T02:22:31.714Z,12.84
2023-05-13T02:26:47.952Z,12.87
2023-05-13T02:31:04.227Z,12.54
2023-05-13T02:35:20.732Z,12.63
2023-05-13T02:39:37.080Z,12.91
2023-05-13T02:43:53.411Z,12.75
2023-05-13T02:48:11.202Z,12.92
2023-05-13T02:52:27.480Z,12.55
2023-05-13T02:56:43.731Z,12.53
2023-05-13T03:01:00.087Z,12.78
2023-05-13T03:05:16.762Z,12.40
2023-05-13T03:09:35.269Z,12.29
2023-05-13T03:13:51.647Z,12.59
2023-05-13T03:18:07.964Z,12.44
2023-05-13T03:22:24.291Z,12.56
2023-05-13T03:26:40.603Z,12.46
2023-05-13T03:30:56.860Z,12.21
2023-05-13T03:35:13.173Z,12.58
2023-05-13T03:39:29.617Z,12.90
2023-05-13T03:43:46.586Z,12.28
2023-05-13T03:48:02.761Z,12.43
2023-05-13T03:52:19.047Z,12.40
2023-05-13T03:56:35.350Z,12.44
2023-05-13T04:00:51.604Z,12.24
2023-05-13T04:05:09.752Z,12.40
2023-05-13T04:09:26.140Z,12.19
2023-05-13T04:13:44.018Z,12.39
2023-05-13T04:18:00.544Z,12.43
2023-05-13T04:22:16.726Z,12.23
2023-05-13T04:26:33.014Z,12.60
2023-05-13T04:30:49.328Z,12.40
2023-05-13T04:35:07.188Z,12.34
2023-05-13T04:39:23.400Z,12.53
2023-05-13T04:43:39.716Z,12.58
2023-05-13T04:47:58.373Z,12.50
2023-05-13T04:52:14.795Z,12.70
2023-05-13T04:56:31.043Z,12.55
2023-05-13T05:00:47.239Z,12.50
2023-05-13T05:05:03.864Z,12.50
2023-05-13T05:09:20.205Z,12.45
2023-05-13T05:13:36.448Z,12.53
2023-05-13T05:17:52.791Z,12.37
2023-05-13T05:22:09.155Z,12.49
2023-05-13T05:26:25.435Z,12.53
2023-05-13T05:30:41.920Z,12.44
2023-05-13T05:34:58.124Z,12.46
2023-05-13T05:39:14.316Z,12.12
2023-05-13T05:43:31.003Z,12.61
2023-05-13T05:47:47.212Z,12.37
2023-05-13T05:52:03.487Z,12.33
2023-05-13T05:56:20.089Z,12.00
2023-05-13T06:00:36.320Z,12.05
2023-05-13T06:04:52.608Z,12.28
2023-05-13T06:09:08.844Z,12.56
2023-05-13T06:13:25.392Z,12.15
2023-05-13T06:17:41.622Z,12.50
2023-05-13T06:21:57.981Z,12.57
2023-05-13T06:26:14.194Z,12.54
2023-05-13T06:30:30.337Z,12.92
2023-05-13T06:34:47.000Z,13.05
2023-05-13T06:39:03.563Z,13.00
2023-05-13T06:43:19.966Z,12.52
2023-05-13T06:47:36.365Z,12.89
2023-05-13T06:51:52.695Z,12.67
2023-05-13T06:56:09.032Z,12.59
2023-05-13T07:00:25.599Z,12.30
2023-05-13T07:04:41.864Z,12.55
2023-05-13T07:08:58.103Z,12.66
2023-05-13T07:13:14.730Z,12.66
2023-05-13T07:17:31.677Z,12.67
2023-05-13T07:21:47.985Z,12.70
2023-05-13T07:26:04.322Z,12.76
2023-05-13T07:30:20.779Z,12.33
2023-05-13T07:34:37.489Z,12.71
2023-05-13T07:38:54.132Z,12.53
2023-05-13T07:43:10.530Z,12.69
2023-05-13T07:47:29.340Z,12.87
2023-05-13T07:51:45.655Z,12.48
2023-05-13T07:56:01.937Z,12.76
2023-05-13T08:00:18.436Z,12.97
2023-05-13T08:04:34.942Z,13.19
2023-05-13T08:08:51.276Z,13.20
2023-05-13T08:13:07.530Z,13.34
2023-05-13T08:17:23.817Z,13.02
2023-05-13T08:21:40.293Z,13.18
2023-05-13T08:25:56.443Z,13.27
2023-05-13T08:30:13.195Z,13.27
2023-05-13T08:34:29.453Z,13.49
2023-05-13T08:38:45.879Z,13.74
2023-05-13T08:43:04.073Z,13.60
2023-05-13T08:47:38.570Z,13.79
2023-05-13T08:51:54.888Z,13.66
2023-05-13T08:56:12.100Z,13.59
2023-05-13T09:00:28.433Z,13.49
2023-05-13T09:04:46.405Z,13.26
2023-05-13T09:09:03.523Z,13.51
2023-05-13T09:13:19.825Z,13.55
2023-05-13T09:17:40.215Z,13.83
2023-05-13T09:21:57.379Z,13.89
2023-05-13T09:26:30.520Z,13.57
2023-05-13T09:30:54.848Z,13.52
2023-05-13T09:35:16.935Z,14.25
2023-05-13T09:39:38.313Z,14.27
2023-05-13T09:43:54.881Z,14.82
2023-05-13T09:48:11.640Z,14.70
2023-05-13T09:52:29.495Z,14.54
2023-05-13T09:56:45.719Z,14.76
2023-05-13T10:01:03.254Z,14.43
2023-05-13T10:05:19.667Z,14.64
2023-05-13T10:09:37.517Z,15.26
2023-05-13T10:13:59.572Z,15.16
2023-05-13T10:18:17.003Z,15.13
2023-05-13T10:22:35.109Z,15.27
2023-05-13T10:26:52.907Z,15.43
2023-05-13T10:31:09.287Z,15.00
2023-05-13T10:35:28.745Z,14.57
2023-05-13T10:40:16.174Z,15.44
2023-05-13T10:44:33.876Z,15.17
2023-05-13T10:48:55.344Z,15.21
2023-05-13T10:53:19.571Z,15.82
2023-05-13T10:57:38.911Z,15.49
2023-05-13T11:01:55.139Z,15.52
2023-05-13T11:06:19.745Z,15.81
2023-05-13T11:10:36.553Z,15.72
2023-05-13T11:14:56.912Z,15.88
2023-05-13T11:19:24.177Z,16.42
2023-05-13T11:24:02.343Z,16.05
2023-05-13T11:28:38.965Z,16.05
2023-05-13T11:32:56.927Z,15.69
2023-05-13T11:37:13.569Z,15.78
2023-05-13T11:41:35.157Z,15.35
2023-05-13T11:45:52.049Z,15.59
2023-05-13T11:50:23.364Z,15.64
2023-05-13T11:54:53.831Z,16.11
2023-05-13T11:59:16.401Z,15.99
2023-05-13T12:03:32.661Z,15.76
2023-05-13T12:07:49.190Z,16.28
2023-05-13T12:12:06.080Z,16.31
2023-05-13T12:16:22.830Z,16.29
2023-05-13T12:20:39.196Z,16.72
2023-05-13T12:24:55.963Z,16.50
2023-05-13T12:29:12.411Z,16.71
2023-05-13T12:33:30.171Z,16.51
2023-05-13T12:37:58.491Z,16.84
2023-05-13T12:42:16.228Z,15.96
2023-05-13T12:46:32.921Z,16.15
2023-05-13T12:50:49.169Z,16.63
2023-05-13T12:55:05.840Z,16.50
2023-05-13T12:59:22.131Z,16.27
2023-05-13T13:03:38.423Z,16.58
2023-05-13T13:07:54.857Z,16.60
2023-05-13T13:12:11.079Z,16.63
2023-05-13T13:16:27.719Z,16.63
2023-05-13T13:20:43.942Z,16.55
2023-05-13T13:25:00.167Z,16.45
2023-05-13T13:29:16.400Z,16.55
2023-05-13T13:33:32.588Z,17.05
2023-05-13T13:37:48.807Z,17.05
2023-05-13T13:42:05.294Z,16.98
2023-05-13T13:46:21.585Z,16.81
2023-05-13T13:50:39.000Z,17.08
2023-05-13T13:54:55.853Z,17.34
2023-05-13T13:59:12.106Z,17.50
2023-05-13T14:03:28.701Z,17.06
2023-05-13T14:07:45.084Z,17.18
2023-05-13T14:12:01.442Z,17.10
2023-05-13T14:16:17.670Z,16.96
2023-05-13T14:20:35.879Z,17.07
2023-05-13T14:24:54.829Z,17.01
2023-05-13T14:29:11.061Z,16.33
2023-05-13T14:33:27.279Z,16.79
2023-05-13T14:37:43.839Z,16.57
2023-05-13T14:42:00.800Z,17.08
2023-05-13T14:46:17.430Z,17.27
2023-05-13T14:50:33.879Z,17.21
2023-05-13T14:54:50.185Z,17.79
2023-05-13T14:59:06.410Z,18.72
2023-05-13T15:03:22.615Z,18.81
2023-05-13T15:07:38.917Z,19.81
2023-05-13T15:11:55.172Z,19.89
2023-05-13T15:16:11.963Z,20.26
2023-05-13T15:20:28.832Z,19.74
2023-05-13T15:24:45.196Z,19.27
2023-05-13T15:29:01.594Z,19.16
2023-05-13T15:33:17.958Z,18.86
2023-05-13T15:37:34.179Z,18.57
2023-05-13T15:41:50.477Z,18.14
2023-05-13T15:46:06.821Z,17.88
2023-05-13T15:50:23.596Z,17.79
2023-05-13T15:54:40.102Z,17.56
2023-05-13T15:58:56.368Z,17.42
2023-05-13T16:03:12.708Z,17.85
2023-05-13T16:07:28.981Z,17.65
2023-05-13T16:11:45.289Z,17.51
2023-05-13T16:16:01.672Z,17.37
2023-05-13T16:20:17.922Z,17.04
2023-05-13T16:24:34.177Z,16.94
2023-05-13T16:28:50.548Z,17.40
2023-05-13T16:33:08.194Z,17.31
2023-05-13T16:37:24.523Z,17.58
2023-05-13T16:41:40.837Z,17.48
2023-05-13T16:45:57.145Z,17.30
2023-05-13T16:50:13.346Z,17.14
2023-05-13T16:54:29.788Z,17.11
2023-05-13T16:58:46.285Z,17.25
2023-05-13T17:03:02.608Z,17.20
2023-05-13T17:07:19.438Z,16.94
2023-05-13T17:11:37.355Z,17.02
2023-05-13T17:15:53.688Z,16.69
2023-05-13T17:20:10.570Z,17.15
2023-05-13T17:24:32.564Z,16.80
2023-05-13T17:28:49.923Z,16.86
2023-05-13T17:33:06.290Z,16.82
2023-05-13T17:37:22.558Z,16.86
2023-05-13T17:41:38.920Z,16.43
2023-05-13T17:45:55.116Z,16.41
2023-05-13T17:50:11.706Z,16.27
2023-05-13T17:54:27.886Z,15.55
2023-05-13T17:58:44.076Z,16.11
2023-05-13T18:03:00.362Z,16.17
2023-05-13T18:07:16.703Z,16.19
2023-05-13T18:11:32.906Z,16.08
2023-05-13T18:15:49.248Z,15.94
2023-05-13T18:20:06.368Z,15.81
2023-05-13T18:24:22.543Z,15.75
2023-05-13T18:28:39.861Z,15.50
2023-05-13T18:32:56.306Z,15.40
2023-05-13T18:37:12.461Z,15.17
2023-05-13T18:41:28.707Z,15.28
2023-05-13T18:45:45.006Z,15.13
2023-05-13T18:50:01.305Z,14.91
2023-05-13T18:54:17.538Z,14.86
2023-05-13T18:58:34.574Z,14.91
2023-05-13T19:02:50.965Z,14.97
2023-05-13T19:07:07.387Z,14.92
2023-05-13T19:11:23.690Z,15.03
2023-05-13T19:15:40.404Z,14.81
2023-05-13T19:19:57.682Z,14.88
2023-05-13T19:24:13.942Z,14.56
2023-05-13T19:28:30.253Z,14.58
2023-05-13T19:32:46.536Z,14.49
2023-05-13T19:37:02.953Z,14.37
2023-05-13T19:41:21.247Z,14.35
2023-05-13T19:45:37.535Z,14.32
2023-05-13T19:50:01.401Z,14.19
2023-05-13T19:54:18.078Z,14.02
2023-05-13T19:58:34.346Z,13.83
2023-05-13T20:02:50.709Z,13.97
2023-05-13T20:07:09.169Z,13.64
2023-05-13T20:11:25.662Z,13.58
2023-05-13T20:15:42.548Z,13.63
2023-05-13T20:20:02.542Z,13.82
2023-05-13T20:24:19.347Z,13.85
2023-05-13T20:28:37.533Z,13.79
2023-05-13T20:32:54.293Z,13.87
2023-05-13T20:37:10.539Z,13.80
2023-05-13T20:41:26.852Z,13.41
2023-05-13T20:45:43.515Z,13.59
2023-05-13T20:49:59.781Z,13.48
2023-05-13T20:54:18.794Z,13.24
2023-05-13T20:58:36.788Z,13.33
2023-05-13T21:02:54.079Z,13.55
2023-05-13T21:07:10.992Z,13.56
2023-05-13T21:11:27.350Z,13.41
2023-05-13T21:15:43.730Z,13.25
2023-05-13T21:19:59.978Z,13.29
2023-05-13T21:24:18.832Z,13.34
2023-05-13T21:28:35.375Z,13.22
2023-05-13T21:32:51.641Z,12.94
2023-05-13T21:37:07.930Z,13.06
2023-05-13T21:41:24.181Z,13.27
2023-05-13T21:45:40.426Z,13.17
2023-05-13T21:49:56.654Z,13.20
2023-05-13T21:54:12.836Z,13.07
2023-05-13T21:58:29.107Z,12.86
2023-05-13T22:02:50.171Z,12.74
2023-05-13T22:07:06.687Z,12.73
2023-05-13T22:11:23.490Z,12.80
2023-05-13T22:15:39.686Z,12.74
2023-05-13T22:19:56.004Z,13.03
2023-05-13T22:24:12.146Z,12.81
2023-05-13T22:28:28.340Z,12.87
2023-05-13T22:32:44.552Z,12.81
2023-05-13T22:37:01.215Z,12.82
2023-05-13T22:41:20.921Z,12.91
2023-05-13T22:45:38.055Z,13.14
2023-05-13T22:49:54.450Z,13.35
2023-05-13T22:54:10.758Z,13.22
2023-05-13T22:58:26.929Z,13.17
2023-05-13T23:02:43.293Z,13.22
2023-05-13T23:06:59.595Z,12.93
2023-05-13T23:11:15.821Z,13.04
2023-05-13T23:15:32.669Z,13.10
2023-05-13T23:19:49.022Z,13.08
2023-05-13T23:24:05.449Z,12.94
2023-05-13T23:28:21.694Z,13.32
2023-05-13T23:32:37.945Z,13.15
2023-05-13T23:36:54.394Z,13.30
2023-05-13T23:41:10.638Z,13.25
2023-05-13T23:45:27.528Z,13.11
2023-05-13T23:49:44.392Z,13.05
2023-05-13T23:54:01.151Z,13.09
2023-05-13T23:58:17.947Z,13.19
